Time;durP1;ratioP1;P1;durP2;ratioP2;P2;SDS_P1;SDS_P2;PMS_P1;PMS_P2;Temp;Humidity;BMP_temperature;BMP_pressure;BME280_temperature;BME280_humidity;BME280_pressure;Samples;Min_cycle;Max_cycle;Signal;HPM_P1;HPM_P2
2021/01/01 00:01:40;;;;;;;299.75;205.82;;;;;;;5.55;84.79;100066.56;5052529;28;20384;-75
2021/01/01 00:04:07;;;;;;;251.00;168.27;;;;;;;5.57;85.00;100069.81;5053256;28;20061;-75
2021/01/01 00:06:34;;;;;;;234.75;154.90;;;;;;;5.55;84.96;100069.34;5052542;28;20029;-75
2021/01/01 00:09:00;;;;;;;210.00;137.60;;;;;;;5.56;84.39;100061.88;5052162;28;20041;-76
2021/01/01 00:11:25;;;;;;;225.68;147.15;;;;;;;5.63;84.30;100068.47;5052592;28;20037;-75
2021/01/01 00:13:51;;;;;;;149.73;87.05;;;;;;;5.57;83.61;100052.44;5052598;28;20025;-75
2021/01/01 00:16:19;;;;;;;164.55;104.18;;;;;;;5.74;82.98;100074.41;5052717;28;20026;-75
2021/01/01 00:18:46;;;;;;;146.60;94.47;;;;;;;5.70;83.52;100063.25;5052961;28;20467;-75
2021/01/01 00:21:14;;;;;;;132.45;85.38;;;;;;;5.69;83.25;100061.63;5052438;28;20026;-75
2021/01/01 00:23:40;;;;;;;116.07;72.43;;;;;;;5.66;83.54;100070.56;5052106;28;20116;-75
2021/01/01 00:26:13;;;;;;;98.38;63.47;;;;;;;5.59;83.38;100055.66;5052724;28;20065;-75
2021/01/01 00:28:41;;;;;;;109.10;66.97;;;;;;;5.69;83.01;100056.09;5053271;28;20060;-74
2021/01/01 00:31:09;;;;;;;112.10;69.63;;;;;;;5.64;83.20;100059.03;5020569;28;20029;-75
2021/01/01 00:33:34;;;;;;;92.30;57.17;;;;;;;5.73;83.12;100062.56;5054118;28;20043;-75
2021/01/01 00:36:02;;;;;;;74.13;50.80;;;;;;;5.69;82.76;100047.81;5053880;28;20025;-74
2021/01/01 00:38:28;;;;;;;71.38;42.70;;;;;;;5.66;83.00;100050.44;5053527;28;20029;-75
2021/01/01 00:40:54;;;;;;;78.63;43.75;;;;;;;5.58;82.84;100052.09;5054423;28;20078;-75
2021/01/01 00:43:19;;;;;;;67.03;39.28;;;;;;;5.56;82.94;100051.63;5052019;28;20040;-74
2021/01/01 00:45:45;;;;;;;60.75;37.78;;;;;;;5.63;82.85;100051.91;5051720;28;20036;-75
2021/01/01 00:48:11;;;;;;;51.38;31.63;;;;;;;5.69;82.19;100056.09;5051391;28;20032;-75
2021/01/01 00:50:36;;;;;;;43.50;29.02;;;;;;;5.54;82.25;100056.69;5052254;28;20040;-76
2021/01/01 00:53:02;;;;;;;53.40;34.78;;;;;;;5.66;81.32;100055.97;5051076;28;20084;-75
2021/01/01 00:55:30;;;;;;;58.10;36.85;;;;;;;5.52;82.63;100051.47;5051249;28;20021;-75
2021/01/01 00:57:56;;;;;;;59.22;35.95;;;;;;;5.60;82.65;100052.59;5050741;28;20144;-76
2021/01/01 01:00:22;;;;;;;41.88;27.05;;;;;;;5.55;82.67;100055.53;5050728;28;20053;-75
2021/01/01 01:02:47;;;;;;;45.00;29.77;;;;;;;5.49;81.96;100052.16;5050708;28;20029;-75
2021/01/01 01:05:13;;;;;;;41.97;27.58;;;;;;;5.68;82.33;100062.75;5050820;28;20151;-75
2021/01/01 01:07:39;;;;;;;46.58;24.00;;;;;;;5.58;81.86;100060.38;5050494;28;20036;-76
2021/01/01 01:10:05;;;;;;;45.10;26.40;;;;;;;5.64;81.85;100072.84;5050600;28;20050;-75
2021/01/01 01:12:31;;;;;;;40.83;26.38;;;;;;;5.62;82.15;100066.06;5050933;28;20471;-75
2021/01/01 01:14:57;;;;;;;39.85;25.23;;;;;;;5.67;82.16;100069.44;5050216;28;20087;-75
2021/01/01 01:17:23;;;;;;;36.05;22.35;;;;;;;5.68;82.41;100070.25;5034218;28;20379;-75
2021/01/01 01:19:49;;;;;;;36.55;20.25;;;;;;;5.67;82.69;100074.16;5050648;28;20022;-75
2021/01/01 01:22:15;;;;;;;33.40;20.55;;;;;;;5.73;81.90;100073.63;5050418;28;20068;-75
2021/01/01 01:24:43;;;;;;;32.78;19.55;;;;;;;5.75;82.12;100071.34;5050428;28;20107;-75
2021/01/01 01:27:08;;;;;;;32.58;20.98;;;;;;;5.78;81.79;100073.44;5051242;28;20380;-75
2021/01/01 01:29:34;;;;;;;33.08;19.48;;;;;;;5.87;82.39;100078.09;5050882;28;20036;-76
2021/01/01 01:32:05;;;;;;;28.15;17.02;;;;;;;6.00;80.77;100083.41;5050579;28;20068;-75
2021/01/01 01:34:31;;;;;;;31.20;17.88;;;;;;;6.04;81.65;100087.13;5050642;28;20090;-75
2021/01/01 01:36:57;;;;;;;37.50;17.80;;;;;;;6.15;82.16;100090.28;5050131;28;20037;-75
2021/01/01 01:39:23;;;;;;;23.90;14.40;;;;;;;6.23;81.40;100097.72;5050955;28;20068;-74
2021/01/01 01:41:51;;;;;;;24.15;14.73;;;;;;;6.38;81.23;100106.53;5051342;28;20092;-75
2021/01/01 01:44:17;;;;;;;19.92;13.00;;;;;;;6.38;80.53;100096.28;5052227;28;20021;-75
2021/01/01 01:46:45;;;;;;;21.98;13.77;;;;;;;6.41;79.43;100094.81;5051509;28;20041;-74
2021/01/01 01:49:16;;;;;;;14.90;12.07;;;;;;;6.32;80.10;100092.13;5033372;28;20061;-74
2021/01/01 01:51:46;;;;;;;23.92;15.35;;;;;;;6.38;78.61;100079.72;5049586;28;20029;-75
2021/01/01 01:54:12;;;;;;;23.25;13.10;;;;;;;6.36;79.17;100084.78;5049703;28;20056;-75
2021/01/01 01:56:40;;;;;;;24.17;15.68;;;;;;;6.38;79.73;100073.38;5034305;28;20105;-75
2021/01/01 01:59:06;;;;;;;20.42;14.27;;;;;;;6.36;79.71;100078.44;5049029;28;20136;-75
2021/01/01 02:01:32;;;;;;;23.33;15.27;;;;;;;6.38;80.29;100076.94;5033036;28;20060;-75
2021/01/01 02:03:58;;;;;;;29.50;16.92;;;;;;;6.40;79.35;100068.34;5033927;28;20087;-75
2021/01/01 02:06:23;;;;;;;23.85;16.42;;;;;;;6.41;78.69;100067.19;5049703;28;20488;-75
2021/01/01 02:08:50;;;;;;;29.77;16.83;;;;;;;6.52;80.30;100068.41;5049659;28;20116;-75
2021/01/01 02:11:17;;;;;;;27.20;17.80;;;;;;;6.51;80.88;100075.06;5049795;28;20487;-75
2021/01/01 02:13:46;;;;;;;26.88;16.60;;;;;;;6.49;81.30;100074.59;5050127;28;20026;-75
2021/01/01 02:16:14;;;;;;;27.27;16.42;;;;;;;6.47;81.64;100074.13;5050236;28;20541;-75
2021/01/01 02:18:41;;;;;;;28.85;18.08;;;;;;;6.44;81.47;100081.13;5050164;28;20068;-75
2021/01/01 02:21:16;;;;;;;32.38;19.17;;;;;;;6.48;81.66;100076.53;5049899;28;20062;-75
2021/01/01 02:23:42;;;;;;;28.33;17.00;;;;;;;6.48;81.83;100067.44;5050002;28;20065;-75
2021/01/01 02:26:08;;;;;;;25.52;16.65;;;;;;;6.48;82.12;100062.72;5050436;28;20484;-75
2021/01/01 02:28:33;;;;;;;29.10;17.95;;;;;;;6.54;82.93;100068.84;5050886;28;20032;-75
2021/01/01 02:30:59;;;;;;;26.50;16.45;;;;;;;6.52;82.74;100065.63;5050557;28;20507;-74
2021/01/01 02:33:25;;;;;;;32.53;18.10;;;;;;;6.55;82.51;100070.47;5050130;28;20083;-74
2021/01/01 02:35:51;;;;;;;29.48;17.40;;;;;;;6.46;82.46;100067.78;5050093;28;20032;-75
2021/01/01 02:38:20;;;;;;;43.30;24.83;;;;;;;6.50;80.41;100067.94;5050404;28;20025;-75
2021/01/01 02:40:46;;;;;;;38.42;24.48;;;;;;;6.48;79.18;100064.69;5034696;28;20100;-75
2021/01/01 02:43:11;;;;;;;35.55;22.85;;;;;;;6.47;79.18;100063.06;5051613;28;20105;-75
2021/01/01 02:45:37;;;;;;;36.40;21.70;;;;;;;6.45;79.12;100065.38;5052157;28;20369;-75
2021/01/01 02:48:11;;;;;;;36.95;21.55;;;;;;;6.45;80.29;100065.38;5053773;28;20029;-75
2021/01/01 02:50:37;;;;;;;37.15;23.27;;;;;;;6.44;80.73;100064.53;5056605;28;20028;-75
2021/01/01 02:53:04;;;;;;;39.92;23.02;;;;;;;6.46;81.36;100055.94;5056985;28;20033;-75
2021/01/01 02:55:30;;;;;;;38.20;22.08;;;;;;;6.45;81.63;100057.91;5056791;28;20029;-75
2021/01/01 02:57:58;;;;;;;36.58;22.15;;;;;;;6.43;82.42;100056.59;5055276;28;20061;-75
2021/01/01 03:00:24;;;;;;;32.40;20.58;;;;;;;6.44;82.29;100052.69;5037557;28;20037;-75
2021/01/01 03:02:52;;;;;;;37.15;20.77;;;;;;;6.38;82.70;100059.56;5053805;28;20037;-75
2021/01/01 03:05:18;;;;;;;30.27;18.95;;;;;;;6.37;82.58;100057.94;5053647;28;20035;-75
2021/01/01 03:07:44;;;;;;;32.03;19.52;;;;;;;6.37;82.24;100063.47;5036995;28;20085;-74
2021/01/01 03:10:11;;;;;;;33.35;19.15;;;;;;;6.28;82.94;100056.09;5053529;28;20447;-75
2021/01/01 03:12:37;;;;;;;31.65;20.10;;;;;;;6.28;83.17;100056.09;5037893;28;20491;-75
2021/01/01 03:15:04;;;;;;;30.35;20.52;;;;;;;6.24;82.70;100049.59;5037264;28;20095;-75
2021/01/01 03:17:30;;;;;;;31.25;20.42;;;;;;;6.22;82.48;100062.94;5053597;28;20032;-75
2021/01/01 03:19:55;;;;;;;30.90;19.60;;;;;;;6.20;82.50;100062.47;5053921;28;20101;-75
2021/01/01 03:22:21;;;;;;;40.20;23.35;;;;;;;6.20;82.61;100058.91;5054506;28;20060;-75
2021/01/01 03:24:47;;;;;;;33.53;19.98;;;;;;;6.26;82.98;100052.03;5054164;28;20120;-75
2021/01/01 03:27:12;;;;;;;35.15;21.83;;;;;;;6.34;83.53;100058.63;5054134;28;20112;-75
2021/01/01 03:29:38;;;;;;;36.53;23.67;;;;;;;6.40;82.92;100051.75;5054532;28;20048;-75
2021/01/01 03:32:04;;;;;;;32.97;20.15;;;;;;;6.32;83.06;100055.41;5054172;28;20056;-75
2021/01/01 03:34:30;;;;;;;32.75;21.88;;;;;;;6.29;83.35;100045.84;5047659;28;20469;-75
2021/01/01 03:36:56;;;;;;;32.95;21.15;;;;;;;6.36;82.99;100051.63;5039385;28;20050;-75
2021/01/01 03:39:22;;;;;;;27.17;19.45;;;;;;;6.37;82.81;100046.91;5054486;28;20488;-75
2021/01/01 03:41:48;;;;;;;37.75;22.48;;;;;;;6.34;83.11;100050.31;5055343;28;20060;-75
2021/01/01 03:44:13;;;;;;;29.25;17.88;;;;;;;6.31;82.92;100043.53;5055126;28;20530;-75
2021/01/01 03:46:39;;;;;;;36.67;19.25;;;;;;;6.29;83.11;100046.66;5058192;28;20045;-75
2021/01/01 03:49:04;;;;;;;29.85;17.25;;;;;;;6.35;82.64;100046.44;5059814;28;20048;-75
2021/01/01 03:51:30;;;;;;;26.52;17.00;;;;;;;6.34;82.87;100047.56;5053825;28;20075;-75
2021/01/01 03:53:56;;;;;;;29.55;18.30;;;;;;;6.32;83.31;100047.09;5053582;28;20029;-75
2021/01/01 03:56:21;;;;;;;29.70;18.77;;;;;;;6.45;82.79;100049.59;5052949;28;20471;-75
2021/01/01 03:58:50;;;;;;;26.10;17.27;;;;;;;6.47;82.30;100049.25;5051659;28;20045;-75
2021/01/01 04:01:17;;;;;;;27.58;17.90;;;;;;;6.43;82.30;100046.34;5036495;28;20033;-75
2021/01/01 04:03:42;;;;;;;26.52;16.17;;;;;;;6.51;82.15;100047.44;5036180;28;20180;-75
2021/01/01 04:06:09;;;;;;;22.00;13.80;;;;;;;6.54;82.19;100044.78;5053791;28;20072;-75
2021/01/01 04:08:37;;;;;;;20.55;13.40;;;;;;;6.45;82.57;100048.78;5053059;28;20034;-75
2021/01/01 04:11:03;;;;;;;18.00;12.82;;;;;;;6.50;82.46;100045.81;5052708;28;20080;-75
2021/01/01 04:13:29;;;;;;;27.92;15.60;;;;;;;6.51;83.02;100039.94;5053056;28;20415;-75
2021/01/01 04:15:56;;;;;;;21.20;13.13;;;;;;;6.49;83.05;100045.00;5037090;28;20040;-75
2021/01/01 04:18:21;;;;;;;24.38;13.48;;;;;;;6.51;82.75;100033.63;5052599;28;20160;-75
2021/01/01 04:20:47;;;;;;;18.63;12.10;;;;;;;6.49;82.29;100036.69;5053193;28;20064;-75
2021/01/01 04:23:15;;;;;;;15.50;10.48;;;;;;;6.48;80.58;100026.00;5052789;28;20045;-75
2021/01/01 04:25:41;;;;;;;12.98;8.55;;;;;;;6.61;77.39;100033.19;5052702;28;20030;-75
2021/01/01 04:28:06;;;;;;;17.08;9.40;;;;;;;6.72;77.88;100039.91;5052685;28;20040;-75
2021/01/01 04:30:35;;;;;;;18.63;11.15;;;;;;;6.68;79.17;100035.41;5052979;28;20037;-75
2021/01/01 04:33:01;;;;;;;13.32;9.07;;;;;;;6.65;78.38;100034.09;5053694;28;20030;-75
2021/01/01 04:35:26;;;;;;;21.42;9.77;;;;;;;6.74;77.98;100025.75;5052563;28;20434;-75
2021/01/01 04:37:52;;;;;;;12.18;7.97;;;;;;;6.68;78.39;100027.91;5053047;28;20552;-75
2021/01/01 04:40:17;;;;;;;12.25;8.32;;;;;;;6.68;77.99;100035.41;5052788;28;20040;-75
2021/01/01 04:42:46;;;;;;;14.88;8.45;;;;;;;6.69;77.20;100032.28;5053686;28;20097;-75
2021/01/01 04:45:13;;;;;;;15.60;8.98;;;;;;;6.64;77.93;100035.25;5053343;28;20083;-75
2021/01/01 04:47:40;;;;;;;10.70;7.35;;;;;;;6.67;78.42;100034.59;5054006;28;20033;-76
2021/01/01 04:50:06;;;;;;;13.70;8.13;;;;;;;6.72;78.91;100037.16;5053873;28;20040;-75
2021/01/01 04:52:33;;;;;;;14.70;8.65;;;;;;;6.66;78.84;100037.69;5053989;28;20033;-75
2021/01/01 04:55:00;;;;;;;14.93;9.15;;;;;;;6.67;79.58;100034.59;5055235;28;20128;-75
2021/01/01 04:57:27;;;;;;;12.55;6.93;;;;;;;6.68;78.35;100030.69;5055895;28;20380;-75
2021/01/01 04:59:56;;;;;;;8.48;6.68;;;;;;;6.63;79.13;100036.41;5060850;28;20033;-76
2021/01/01 05:02:23;;;;;;;9.07;6.43;;;;;;;6.55;79.14;100040.06;5061072;28;20471;-76
2021/01/01 05:04:49;;;;;;;15.38;6.55;;;;;;;6.63;79.47;100038.38;5060933;28;20039;-76
2021/01/01 05:07:19;;;;;;;8.85;6.28;;;;;;;6.69;79.03;100048.06;5062639;28;20055;-76
2021/01/01 05:09:46;;;;;;;12.45;6.15;;;;;;;6.66;78.78;100044.03;5060990;28;20084;-76
2021/01/01 05:12:12;;;;;;;13.25;6.47;;;;;;;6.63;78.53;100039.19;5041991;28;20029;-75
2021/01/01 05:14:41;;;;;;;11.10;6.78;;;;;;;6.65;79.50;100044.38;5058141;28;20036;-75
2021/01/01 05:17:08;;;;;;;10.02;6.93;;;;;;;6.65;80.57;100042.41;5058457;28;20540;-76
2021/01/01 05:19:41;;;;;;;9.55;6.68;;;;;;;6.72;79.99;100044.63;5058089;28;20078;-75
2021/01/01 05:22:09;;;;;;;12.07;7.00;;;;;;;6.66;80.59;100049.56;5059278;28;20024;-75
2021/01/01 05:24:41;;;;;;;12.52;7.40;;;;;;;6.69;80.52;100048.88;5059072;28;20115;-75
2021/01/01 05:27:18;;;;;;;8.18;5.40;;;;;;;6.64;80.96;100053.81;5058359;28;20127;-74
2021/01/01 05:29:54;;;;;;;10.27;6.22;;;;;;;6.62;81.64;100048.63;5059256;28;20025;-75
2021/01/01 05:32:28;;;;;;;8.57;6.28;;;;;;;6.63;81.73;100055.78;5075402;28;20059;-75
2021/01/01 05:34:54;;;;;;;9.32;6.75;;;;;;;6.69;82.24;100051.66;5058680;28;20060;-75
2021/01/01 05:37:32;;;;;;;12.90;6.90;;;;;;;6.70;81.80;100058.78;5058158;28;20031;-74
2021/01/01 05:40:10;;;;;;;8.55;6.38;;;;;;;6.69;81.62;100053.59;5075441;28;20032;-75
2021/01/01 05:42:37;;;;;;;8.32;5.90;;;;;;;6.64;82.06;100046.31;5058883;28;20082;-75
2021/01/01 05:45:13;;;;;;;17.42;9.10;;;;;;;6.62;82.07;100042.28;5058952;28;20074;-75
2021/01/01 05:47:39;;;;;;;13.50;10.48;;;;;;;6.61;82.31;100043.44;5058867;28;20130;-76
2021/01/01 05:50:05;;;;;;;11.70;7.75;;;;;;;6.44;82.63;100030.56;5077461;28;20064;-75
2021/01/01 05:52:31;;;;;;;9.80;6.35;;;;;;;6.61;82.97;100046.22;5078214;28;20429;-76
2021/01/01 05:55:04;;;;;;;9.38;6.97;;;;;;;6.57;83.09;100040.53;5062711;28;20032;-76
2021/01/01 05:57:38;;;;;;;12.02;7.97;;;;;;;6.72;83.05;100048.22;5058513;28;20039;-75
2021/01/01 06:00:10;;;;;;;7.90;6.28;;;;;;;6.61;82.71;100041.50;5074518;28;20118;-75
2021/01/01 06:02:38;;;;;;;12.40;6.68;;;;;;;6.64;82.47;100051.03;5073865;28;20177;-75
2021/01/01 06:05:11;;;;;;;8.65;5.05;;;;;;;6.74;79.94;100050.63;5056708;28;20042;-75
2021/01/01 06:07:38;;;;;;;5.65;3.85;;;;;;;6.94;77.82;100051.75;5056626;28;20035;-75
2021/01/01 06:10:06;;;;;;;5.80;4.20;;;;;;;7.08;76.56;100041.16;5073421;28;20108;-75
2021/01/01 06:12:35;;;;;;;5.45;3.83;;;;;;;6.97;77.79;100037.22;5056664;28;20063;-75
2021/01/01 06:15:01;;;;;;;8.23;4.30;;;;;;;6.94;77.95;100044.25;5073360;28;20094;-74
2021/01/01 06:17:34;;;;;;;7.70;5.13;;;;;;;6.92;78.76;100041.00;5056958;28;20025;-75
2021/01/01 06:19:59;;;;;;;14.10;7.20;;;;;;;6.97;80.36;100042.75;5056995;28;20026;-75
2021/01/01 06:22:32;;;;;;;10.50;7.05;;;;;;;6.93;80.97;100048.16;5059062;28;20032;-75
2021/01/01 06:24:59;;;;;;;8.18;6.00;;;;;;;6.91;80.65;100055.97;5045542;28;20039;-75
2021/01/01 06:27:29;;;;;;;9.88;6.07;;;;;;;6.87;80.20;100054.22;5061536;28;20115;-76
2021/01/01 06:30:01;;;;;;;10.90;5.88;;;;;;;6.87;80.76;100055.06;5078564;28;20032;-75
2021/01/01 06:32:31;;;;;;;6.32;4.78;;;;;;;6.87;81.48;100059.75;5061318;28;20081;-75
2021/01/01 06:35:15;;;;;;;10.38;5.68;;;;;;;6.82;81.04;100060.81;5061361;28;20043;-75
2021/01/01 06:37:43;;;;;;;8.43;4.38;;;;;;;6.87;81.36;100051.47;5061720;28;20028;-75
2021/01/01 06:40:20;;;;;;;5.28;2.83;;;;;;;6.96;79.83;100052.19;5061326;28;20052;-75
2021/01/01 06:42:53;;;;;;;6.68;3.20;;;;;;;6.95;79.02;100047.81;5078729;28;20028;-75
2021/01/01 06:45:43;;;;;;;4.80;3.67;;;;;;;7.04;79.50;100054.88;5062580;28;20360;-75
2021/01/01 06:48:18;;;;;;;6.25;4.07;;;;;;;7.00;80.17;100053.13;5053204;28;20033;-76
2021/01/01 06:50:51;;;;;;;5.22;3.67;;;;;;;7.00;79.17;100055.91;5078503;28;20035;-76
2021/01/01 06:53:18;;;;;;;8.50;3.22;;;;;;;7.00;78.77;100053.94;5061865;28;20029;-75
2021/01/01 06:55:44;;;;;;;7.75;3.55;;;;;;;7.40;78.46;100066.34;5061478;28;20059;-75
2021/01/01 06:58:11;;;;;;;7.63;4.03;;;;;;;7.65;76.87;100062.44;5075441;28;20091;-76
2021/01/01 07:00:49;;;;;;;3.92;2.25;;;;;;;8.00;73.62;100061.97;5058241;28;20021;-76
2021/01/01 07:03:29;;;;;;;6.70;3.03;;;;;;;8.64;73.32;100064.72;5075683;28;20029;-75
2021/01/01 07:06:15;;;;;;;5.32;3.45;;;;;;;9.73;69.65;100069.94;5074562;28;20025;-75
2021/01/01 07:08:43;;;;;;;8.73;4.95;;;;;;;10.39;66.55;100069.13;5046579;28;20041;-76
2021/01/01 07:11:09;;;;;;;6.25;4.20;;;;;;;11.24;63.33;100072.81;5074926;28;20029;-76
2021/01/01 07:13:47;;;;;;;9.95;3.08;;;;;;;11.89;59.91;100073.94;5075160;28;20036;-76
2021/01/01 07:16:17;;;;;;;6.10;3.00;;;;;;;12.27;57.73;100081.28;5075607;28;20028;-76
2021/01/01 07:18:43;;;;;;;6.25;2.58;;;;;;;12.30;56.68;100067.38;5076416;28;20036;-75
2021/01/01 07:21:10;;;;;;;4.60;3.33;;;;;;;13.00;56.29;100067.84;5059194;28;20064;-76
2021/01/01 07:23:36;;;;;;;3.58;2.88;;;;;;;13.55;55.02;100071.63;5061037;28;20087;-75
2021/01/01 07:26:03;;;;;;;6.82;3.38;;;;;;;14.01;53.84;100065.59;5060753;28;20025;-76
2021/01/01 07:28:29;;;;;;;6.32;3.17;;;;;;;14.53;52.58;100065.53;5060446;28;20044;-77
2021/01/01 07:30:55;;;;;;;4.45;3.25;;;;;;;14.76;50.25;100070.84;5056951;28;20029;-74
2021/01/01 07:33:23;;;;;;;6.85;3.40;;;;;;;15.48;49.05;100072.63;5056153;28;20025;-74
2021/01/01 07:36:03;;;;;;;6.00;2.83;;;;;;;15.52;48.21;100075.44;5056786;28;20033;-74
2021/01/01 07:38:30;;;;;;;4.53;2.72;;;;;;;15.68;47.44;100071.06;5057048;28;20492;-74
2021/01/01 07:40:58;;;;;;;3.58;2.65;;;;;;;16.06;48.18;100070.66;5073240;28;20037;-74
2021/01/01 07:43:24;;;;;;;5.20;3.30;;;;;;;16.28;46.98;100068.59;5073880;28;20036;-74
2021/01/01 07:45:50;;;;;;;7.75;3.80;;;;;;;16.08;45.28;100074.66;5056446;28;20031;-75
2021/01/01 07:48:15;;;;;;;6.28;2.50;;;;;;;16.01;45.37;100071.84;5056703;28;20462;-74
2021/01/01 07:50:41;;;;;;;6.72;2.70;;;;;;;15.54;46.69;100071.03;5056249;28;20036;-75
2021/01/01 07:53:11;;;;;;;2.97;2.30;;;;;;;15.44;47.18;100080.22;5056958;28;20411;-74
2021/01/01 07:55:39;;;;;;;3.38;2.05;;;;;;;15.13;46.88;100079.78;5056882;28;20028;-74
2021/01/01 07:58:12;;;;;;;4.35;2.35;;;;;;;15.08;47.10;100071.75;5052277;28;20520;-74
2021/01/01 08:00:46;;;;;;;4.90;3.03;;;;;;;15.66;47.31;100075.50;5054317;28;20031;-78
2021/01/01 08:03:13;;;;;;;4.07;3.17;;;;;;;15.36;47.52;100070.22;5053772;28;20033;-75
2021/01/01 08:05:43;;;;;;;3.50;2.40;;;;;;;15.32;48.23;100058.97;5053221;28;20128;-75
2021/01/01 08:08:12;;;;;;;7.88;3.60;;;;;;;15.62;48.95;100066.25;5052736;28;20033;-75
2021/01/01 08:10:39;;;;;;;7.78;4.22;;;;;;;16.08;48.09;100057.81;5052187;28;20033;-75
2021/01/01 08:13:35;;;;;;;6.25;4.90;;;;;;;16.42;47.08;100062.97;5051513;28;20029;-74
2021/01/01 08:16:19;;;;;;;12.30;5.30;;;;;;;16.16;49.01;100062.22;5025428;28;20434;-76
2021/01/01 08:18:46;;;;;;;7.53;4.78;;;;;;;15.64;48.81;100070.25;5044215;28;20043;-81
2021/01/01 08:21:11;;;;;;;8.55;6.07;;;;;;;15.19;48.87;100052.97;5050451;28;20503;-77
2021/01/01 08:23:56;;;;;;;6.35;2.70;;;;;;;14.42;49.95;100057.03;5050661;28;20055;-76
2021/01/01 08:26:22;;;;;;;8.73;4.43;;;;;;;14.66;49.57;100061.19;5051842;28;20040;-76
2021/01/01 08:28:55;;;;;;;3.38;2.67;;;;;;;13.93;52.04;100066.75;5051473;28;20057;-75
2021/01/01 08:31:24;;;;;;;4.53;2.78;;;;;;;14.15;53.20;100071.28;5054048;28;20036;-76
2021/01/01 08:33:56;;;;;;;5.40;2.95;;;;;;;14.23;54.08;100076.94;5053272;28;20495;-77
2021/01/01 08:36:34;;;;;;;6.43;3.63;;;;;;;13.62;53.95;100066.09;5052705;28;20030;-76
2021/01/01 08:39:11;;;;;;;8.02;5.32;;;;;;;13.91;54.00;100071.94;5036326;28;20034;-76
2021/01/01 08:41:48;;;;;;;3.33;2.60;;;;;;;13.27;53.37;100068.56;5052367;28;20057;-75
2021/01/01 08:44:16;;;;;;;3.33;1.92;;;;;;;14.41;52.67;100072.25;5052124;28;20029;-76
2021/01/01 08:46:47;;;;;;;3.58;3.28;;;;;;;14.44;52.65;100081.88;5052401;28;20022;-78
2021/01/01 08:49:20;;;;;;;6.28;3.15;;;;;;;14.94;52.15;100085.72;5052949;28;20372;-75
2021/01/01 08:51:47;;;;;;;4.55;2.47;;;;;;;14.88;51.29;100073.28;5050909;28;20037;-76
2021/01/01 08:54:24;;;;;;;2.90;2.42;;;;;;;14.49;51.59;100075.91;5051567;28;20456;-76
2021/01/01 08:56:57;;;;;;;4.00;2.40;;;;;;;14.32;52.68;100071.78;5052160;28;20100;-76
2021/01/01 08:59:29;;;;;;;3.05;2.55;;;;;;;14.32;53.28;100075.38;5070579;28;20483;-76
2021/01/01 09:01:55;;;;;;;2.80;2.28;;;;;;;14.20;54.08;100072.91;5076706;28;20482;-77
2021/01/01 09:04:25;;;;;;;4.13;2.58;;;;;;;14.14;54.01;100058.50;5075856;28;20463;-76
2021/01/01 09:07:00;;;;;;;5.57;2.63;;;;;;;14.06;54.10;100067.22;5059376;28;20025;-77
2021/01/01 09:09:33;;;;;;;7.13;3.47;;;;;;;14.27;54.06;100058.97;5077038;28;20040;-78
2021/01/01 09:12:21;;;;;;;7.80;3.30;;;;;;;14.08;54.88;100065.66;5072422;28;20025;-78
2021/01/01 09:14:59;;;;;;;4.60;3.13;;;;;;;14.05;52.69;100046.84;5076422;28;20358;-78
2021/01/01 09:17:31;;;;;;;14.90;11.98;;;;;;;14.05;53.13;100060.81;5060986;28;20032;-77
2021/01/01 09:20:04;;;;;;;6.60;3.70;;;;;;;13.06;54.43;100055.94;5079327;28;20020;-77
2021/01/01 09:22:31;;;;;;;;;;;;;;;12.91;56.54;100058.97;5064616;28;20029;-76
2021/01/01 09:24:56;;;;;;;6.95;3.63;;;;;;;13.05;55.81;100059.94;5080538;28;20358;-78
2021/01/01 09:27:28;;;;;;;6.97;2.75;;;;;;;13.02;54.85;100060.69;5062465;28;20032;-77
2021/01/01 09:30:02;;;;;;;7.50;5.82;;;;;;;13.16;56.11;100071.22;5078170;28;20062;-77
2021/01/01 09:32:28;;;;;;;7.03;3.55;;;;;;;13.76;53.39;100071.00;5078172;28;20075;-77
2021/01/01 09:34:55;;;;;;;6.60;4.78;;;;;;;13.78;54.01;100062.22;5063629;28;20383;-76
2021/01/01 09:37:20;;;;;;;4.35;2.80;;;;;;;13.15;54.38;100061.22;5062473;28;20028;-77
2021/01/01 09:39:46;;;;;;;13.93;7.10;;;;;;;13.14;54.89;100067.19;5063833;28;20551;-76
2021/01/01 09:42:14;;;;;;;6.30;2.95;;;;;;;12.86;55.68;100060.09;5064444;28;20056;-76
2021/01/01 09:44:40;;;;;;;13.50;9.55;;;;;;;13.00;55.38;100049.09;5066424;28;20439;-75
2021/01/01 09:47:06;;;;;;;10.48;6.72;;;;;;;13.33;55.02;100048.28;5065609;28;20064;-76
2021/01/01 09:49:33;;;;;;;6.13;5.28;;;;;;;13.10;55.14;100042.00;5066587;28;20127;-77
2021/01/01 09:51:59;;;;;;;7.95;4.95;;;;;;;12.59;56.48;100049.03;5066821;28;20028;-77
2021/01/01 09:54:25;;;;;;;5.30;3.15;;;;;;;12.66;56.23;100041.91;5067984;28;20100;-77
2021/01/01 09:56:50;;;;;;;5.50;3.70;;;;;;;12.66;56.97;100036.34;5064562;28;20111;-76
2021/01/01 09:59:16;;;;;;;26.17;11.65;;;;;;;12.61;57.81;100033.88;5043993;28;20057;-76
2021/01/01 10:01:42;;;;;;;5.47;3.20;;;;;;;12.15;57.94;100039.66;5055835;28;20022;-77
2021/01/01 10:04:08;;;;;;;3.53;2.47;;;;;;;11.67;59.51;100030.94;5055483;28;20025;-76
2021/01/01 10:06:33;;;;;;;8.77;4.03;;;;;;;11.37;61.26;100030.84;5054773;28;20052;-76
2021/01/01 10:08:59;;;;;;;25.50;14.27;;;;;;;11.22;62.08;100021.44;5052820;28;20029;-76
2021/01/01 10:11:24;;;;;;;32.75;19.92;;;;;;;11.11;62.15;100034.34;5053491;28;20049;-76
2021/01/01 10:13:50;;;;;;;23.80;12.05;;;;;;;10.86;62.88;100020.78;5054244;28;20038;-76
2021/01/01 10:16:19;;;;;;;18.15;9.70;;;;;;;10.63;64.59;100011.59;5055733;28;20392;-77
2021/01/01 10:18:44;;;;;;;10.30;5.60;;;;;;;10.98;63.14;100017.03;5054416;28;20034;-76
2021/01/01 10:21:10;;;;;;;8.55;5.15;;;;;;;10.83;64.47;100004.03;5056176;28;20032;-77
2021/01/01 10:23:36;;;;;;;12.93;6.20;;;;;;;10.63;64.84;100017.16;5053082;28;20060;-76
2021/01/01 10:26:08;;;;;;;5.10;4.43;;;;;;;10.44;66.30;100016.00;5035845;28;20116;-77
2021/01/01 10:28:34;;;;;;;11.70;6.10;;;;;;;10.14;67.56;100001.00;5051446;28;20453;-76
2021/01/01 10:31:00;;;;;;;20.38;15.98;;;;;;;10.02;68.42;100015.06;5036333;28;20036;-78
2021/01/01 10:33:25;;;;;;;12.95;8.77;;;;;;;9.92;69.40;100010.84;5052910;28;20029;-79
2021/01/01 10:35:51;;;;;;;13.23;8.98;;;;;;;10.01;69.29;100003.09;5055744;28;20037;-78
2021/01/01 10:38:17;;;;;;;15.20;8.98;;;;;;;9.98;70.63;99990.75;5056592;28;20045;-78
2021/01/01 10:40:43;;;;;;;6.47;4.78;;;;;;;9.99;70.74;99983.22;5053323;28;20026;-77
2021/01/01 10:43:09;;;;;;;14.95;9.55;;;;;;;10.01;71.93;99991.19;5055234;28;20037;-78
2021/01/01 10:45:35;;;;;;;16.17;9.45;;;;;;;9.79;73.62;99990.69;5055303;28;20536;-76
2021/01/01 10:48:01;;;;;;;10.43;7.88;;;;;;;9.79;74.16;99995.47;5055829;28;20061;-78
2021/01/01 10:50:29;;;;;;;8.93;6.03;;;;;;;9.50;74.04;99994.78;5053996;28;20476;-76
2021/01/01 10:52:55;;;;;;;13.77;10.50;;;;;;;9.39;75.39;99988.19;5052601;28;20025;-76
2021/01/01 10:55:20;;;;;;;12.18;8.80;;;;;;;9.28;75.88;99993.47;5057681;28;20025;-78
2021/01/01 10:57:46;;;;;;;9.23;6.10;;;;;;;9.27;76.26;99996.59;5051629;28;20050;-74
2021/01/01 11:00:15;;;;;;;11.48;6.93;;;;;;;9.34;76.31;99986.47;5050341;28;20095;-75
2021/01/01 11:02:41;;;;;;;13.18;5.93;;;;;;;9.32;76.29;99982.44;5053389;28;20033;-75
2021/01/01 11:05:07;;;;;;;13.73;8.60;;;;;;;9.23;77.59;99985.41;5051509;28;20026;-74
2021/01/01 11:07:33;;;;;;;10.25;6.95;;;;;;;9.06;78.06;99986.56;5056023;28;20036;-77
2021/01/01 11:09:58;;;;;;;19.17;10.73;;;;;;;9.05;78.77;100001.59;5061500;28;20093;-80
2021/01/01 11:12:27;;;;;;;11.63;7.25;;;;;;;9.01;78.84;99986.03;5068102;28;20057;-78
2021/01/01 12:24:51;;;;;;;;;;;;;;;10.25;75.98;99903.94;5079881;28;20047;-75
2021/01/01 12:27:21;;;;;;;13.25;9.95;;;;;;;10.22;74.94;99905.44;5076140;28;19912;-76
2021/01/01 12:29:50;;;;;;;21.10;15.05;;;;;;;10.30;76.25;99898.91;5061842;28;20032;-76
2021/01/01 12:32:20;;;;;;;23.70;15.73;;;;;;;10.48;76.09;99899.22;5060929;28;20035;-75
2021/01/01 12:34:49;;;;;;;26.13;18.75;;;;;;;10.28;77.74;99892.91;5077907;28;20020;-75
2021/01/01 12:37:15;;;;;;;12.63;10.02;;;;;;;10.01;78.64;99893.91;5057956;28;20033;-75